YWLM/NTL METAR and TAF weather

Enter ICAO airport designator
Station Type Date Time Source
YWLM METAR 2019/06/27 08:30 UTC NOAA

YWLM 270830Z 02002KT CAVOK 13/12 Q1033 USE TAF FOR ARRIVALS AFTER 1000Z NOSIG


Station Type Date Time Source
YWLM Decoded METAR 2019/06/27 08:30 UTC NOAA

Station name not available
Jun 27, 2019 - 04:30 AM EDT / 2019.06.27 0830 UTC
Wind: from the NNE (020 degrees) at 2 MPH (2 KT):0
Visibility: greater than 7 mile(s):0
Temperature: 55 F (13 C)
Dew Point: 53 F (12 C)
Relative Humidity: 93%
Pressure (altimeter): 30.50 in. Hg (1033 hPa)
ob: YWLM 270830Z 02002KT CAVOK 13/12 Q1033 USE TAF FOR ARRIVALS AFTER 1000Z NOSIG
cycle: 8

Station Type Date Time Source
YWLM TAF 2019/06/27 06:12 UTC NOAA

TAF
AMD YWLM 270509Z 2706/2806 11008KT 9999 SCT030 SCT040
FM271200 30005KT 9999 SCT020
FM280200 05012KT 9999 SCT030 PROB40 2717/2719 2000 BR SCT001 PROB30 2719/2723 0500 FG

Example: see airport list